createdAt,value
2022-10-23T00:00:52.356Z,29.00
2022-10-23T00:02:43.681Z,29.40
2022-10-23T00:04:20.647Z,27.97
2022-10-23T00:05:52.907Z,29.13
2022-10-23T00:07:25.312Z,28.73
2022-10-23T00:08:57.616Z,29.80
2022-10-23T00:10:29.893Z,31.03
2022-10-23T00:12:02.039Z,30.13
2022-10-23T00:13:34.604Z,30.07
2022-10-23T00:15:07.560Z,31.57
2022-10-23T00:16:40.007Z,31.70
2022-10-23T00:18:12.234Z,30.73
2022-10-23T00:19:44.654Z,30.60
2022-10-23T00:21:18.399Z,32.33
2022-10-23T00:22:50.557Z,29.93
2022-10-23T00:24:23.143Z,30.60
2022-10-23T00:25:55.339Z,32.60
2022-10-23T00:27:27.570Z,32.77
2022-10-23T00:28:59.863Z,31.90
2022-10-23T00:30:32.276Z,33.73
2022-10-23T00:32:04.653Z,33.67
2022-10-23T00:33:37.969Z,33.03
2022-10-23T00:35:10.605Z,32.20
2022-10-23T00:36:42.980Z,34.37
2022-10-23T00:38:15.179Z,34.67
2022-10-23T00:39:47.519Z,33.77
2022-10-23T00:41:25.685Z,33.73
2022-10-23T00:42:58.040Z,33.57
2022-10-23T00:44:30.099Z,34.83
2022-10-23T00:46:02.543Z,34.57
2022-10-23T00:47:34.825Z,35.43
2022-10-23T00:49:08.463Z,35.33
2022-10-23T00:50:42.266Z,36.10
2022-10-23T00:52:15.230Z,35.60
2022-10-23T00:54:01.270Z,36.30
2022-10-23T00:55:49.233Z,35.03
2022-10-23T00:57:21.661Z,34.20
2022-10-23T00:58:54.071Z,34.13
2022-10-23T01:00:41.416Z,34.70
2022-10-23T01:02:14.771Z,34.83
2022-10-23T01:03:47.783Z,34.33
2022-10-23T01:05:29.199Z,34.07
2022-10-23T01:07:33.179Z,33.93
2022-10-23T01:09:26.141Z,34.67
2022-10-23T01:11:32.780Z,33.53
2022-10-23T01:13:25.792Z,32.30
2022-10-23T01:15:29.257Z,32.67
2022-10-23T01:17:44.442Z,34.30
2022-10-23T01:20:05.215Z,34.47
2022-10-23T01:21:59.582Z,33.63
2022-10-23T01:23:47.135Z,33.67
2022-10-23T01:25:58.847Z,35.53
2022-10-23T01:27:42.241Z,33.37
2022-10-23T01:29:46.622Z,34.17
2022-10-23T01:31:39.991Z,33.07
2022-10-23T01:33:20.693Z,32.97
2022-10-23T01:35:05.317Z,34.07
2022-10-23T01:36:43.337Z,33.40
2022-10-23T01:38:30.161Z,34.40
2022-10-23T01:40:08.519Z,32.90
2022-10-23T01:41:52.601Z,37.00
2022-10-23T01:43:32.624Z,35.17
2022-10-23T01:45:19.232Z,34.43
2022-10-23T01:46:54.758Z,35.07
2022-10-23T01:48:32.002Z,35.03
2022-10-23T01:50:08.406Z,33.50
2022-10-23T01:51:46.789Z,34.17
2022-10-23T01:53:20.843Z,32.10
2022-10-23T01:54:58.111Z,34.83
2022-10-23T01:56:37.950Z,33.37
2022-10-23T01:58:11.934Z,33.93
2022-10-23T01:59:53.342Z,34.57
2022-10-23T02:01:30.957Z,34.47
2022-10-23T02:03:04.650Z,35.00
2022-10-23T02:04:52.891Z,34.13
2022-10-23T02:06:25.344Z,35.97
2022-10-23T02:08:00.312Z,33.13
2022-10-23T02:09:34.502Z,33.30
2022-10-23T02:11:13.906Z,33.37
2022-10-23T02:13:03.312Z,35.30
2022-10-23T02:15:25.868Z,33.80
2022-10-23T02:17:26.881Z,33.37
2022-10-23T02:19:17.750Z,33.63
2022-10-23T02:21:03.676Z,33.03
2022-10-23T02:22:48.801Z,33.57
2022-10-23T02:24:38.644Z,32.10
2022-10-23T02:26:38.381Z,32.87
2022-10-23T02:28:17.801Z,31.43
2022-10-23T02:30:01.124Z,29.70
2022-10-23T02:31:33.762Z,31.00
2022-10-23T02:33:08.746Z,31.10
2022-10-23T02:34:41.506Z,31.20
2022-10-23T02:36:15.500Z,32.47
2022-10-23T02:38:01.063Z,29.17
2022-10-23T02:39:33.343Z,28.87
2022-10-23T02:41:31.095Z,28.47
2022-10-23T02:43:30.509Z,28.97
2022-10-23T02:45:16.537Z,29.47
2022-10-23T02:47:00.623Z,28.70
2022-10-23T02:49:20.486Z,29.07
2022-10-23T02:51:30.587Z,30.60
2022-10-23T02:53:25.504Z,29.30
2022-10-23T02:55:18.811Z,30.13
2022-10-23T02:57:23.474Z,30.40
2022-10-23T02:59:44.004Z,30.83
2022-10-23T03:01:22.984Z,31.70
2022-10-23T03:03:06.660Z,32.10
2022-10-23T03:04:42.367Z,33.07
2022-10-23T03:06:16.399Z,34.67
2022-10-23T03:07:49.584Z,33.27
2022-10-23T03:09:21.707Z,35.57
2022-10-23T03:10:54.086Z,36.17
2022-10-23T03:12:26.280Z,36.90
2022-10-23T03:13:58.492Z,36.47
2022-10-23T03:15:30.797Z,37.27
2022-10-23T03:17:04.691Z,36.83
2022-10-23T03:18:37.016Z,37.97
2022-10-23T03:20:10.743Z,36.40
2022-10-23T03:21:43.407Z,39.70
2022-10-23T03:23:15.637Z,39.53
2022-10-23T03:24:47.866Z,38.80
2022-10-23T03:26:20.279Z,40.77
2022-10-23T03:27:52.409Z,39.90
2022-10-23T03:29:24.556Z,41.60
2022-10-23T03:30:56.731Z,40.63
2022-10-23T03:32:29.075Z,40.30
2022-10-23T03:34:04.043Z,43.60
2022-10-23T03:35:38.580Z,42.87
2022-10-23T03:37:11.145Z,43.57
2022-10-23T03:38:43.337Z,44.27
2022-10-23T03:40:15.574Z,43.17
2022-10-23T03:41:48.404Z,40.80
2022-10-23T03:43:20.620Z,44.23
2022-10-23T03:44:52.794Z,43.03
2022-10-23T03:46:25.054Z,42.33
2022-10-23T03:47:57.419Z,44.23
2022-10-23T03:49:29.846Z,43.83
2022-10-23T03:51:01.985Z,45.33
2022-10-23T03:52:34.135Z,45.57
2022-10-23T03:54:06.704Z,41.70
2022-10-23T03:55:38.893Z,43.27
2022-10-23T03:57:11.260Z,46.03
2022-10-23T03:58:43.479Z,43.07
2022-10-23T04:00:16.840Z,41.23
2022-10-23T04:01:49.580Z,42.83
2022-10-23T04:03:21.780Z,44.50
2022-10-23T04:04:54.975Z,45.20
2022-10-23T04:06:27.326Z,44.53
2022-10-23T04:07:59.864Z,45.40
2022-10-23T04:09:32.017Z,41.70
2022-10-23T04:11:04.225Z,43.57
2022-10-23T04:12:36.833Z,42.23
2022-10-23T04:14:13.546Z,41.00
2022-10-23T04:15:53.319Z,43.60
2022-10-23T04:17:25.895Z,41.47
2022-10-23T04:18:58.139Z,43.47
2022-10-23T04:20:30.389Z,42.53
2022-10-23T04:22:02.783Z,40.60
2022-10-23T04:23:35.192Z,42.40
2022-10-23T04:25:09.019Z,42.33
2022-10-23T04:26:41.644Z,43.97
2022-10-23T04:28:14.000Z,43.40
2022-10-23T04:29:46.222Z,41.20
2022-10-23T04:31:18.361Z,43.03
2022-10-23T04:32:52.106Z,44.50
2022-10-23T04:34:24.623Z,43.27
2022-10-23T04:35:56.967Z,41.63
2022-10-23T04:37:29.169Z,40.73
2022-10-23T04:39:01.491Z,44.40
2022-10-23T04:40:34.127Z,41.40
2022-10-23T04:42:06.313Z,42.80
2022-10-23T04:43:38.828Z,40.93
2022-10-23T04:45:11.599Z,43.17
2022-10-23T04:46:44.571Z,42.17
2022-10-23T04:48:16.914Z,44.40
2022-10-23T04:49:49.074Z,44.77
2022-10-23T04:51:21.647Z,43.23
2022-10-23T04:52:58.146Z,43.00
2022-10-23T04:54:37.715Z,42.30
2022-10-23T04:56:15.068Z,44.90
2022-10-23T04:57:47.564Z,42.47
2022-10-23T04:59:20.145Z,44.83
2022-10-23T05:00:53.682Z,41.70
2022-10-23T05:02:25.952Z,43.57
2022-10-23T05:03:58.367Z,44.37
2022-10-23T05:05:30.682Z,42.00
2022-10-23T05:07:02.934Z,42.53
2022-10-23T05:08:35.914Z,42.13
2022-10-23T05:10:09.199Z,41.20
2022-10-23T05:11:41.423Z,44.23
2022-10-23T05:13:13.786Z,44.47
2022-10-23T05:14:45.928Z,44.70
2022-10-23T05:16:42.959Z,44.17
2022-10-23T05:18:45.509Z,48.40
2022-10-23T05:20:25.091Z,49.90
2022-10-23T05:21:58.054Z,47.53
2022-10-23T05:23:34.505Z,47.40
2022-10-23T05:25:07.023Z,47.10
2022-10-23T05:26:39.615Z,45.47
2022-10-23T05:28:11.828Z,50.60
2022-10-23T05:29:44.003Z,50.97
2022-10-23T05:31:19.274Z,47.20
2022-10-23T05:32:51.795Z,52.17
2022-10-23T05:34:26.499Z,43.77
2022-10-23T05:36:00.835Z,48.07
2022-10-23T05:37:33.963Z,46.50
2022-10-23T05:39:06.119Z,48.77
2022-10-23T05:42:11.501Z,42.53
2022-10-23T05:43:44.124Z,46.97
2022-10-23T05:45:17.000Z,42.60
2022-10-23T05:46:49.119Z,44.13
2022-10-23T05:48:34.199Z,42.17
2022-10-23T05:50:08.535Z,43.87
2022-10-23T05:51:41.452Z,43.23
2022-10-23T05:53:13.668Z,42.57
2022-10-23T05:54:46.358Z,40.40
2022-10-23T05:56:19.459Z,38.37
2022-10-23T05:57:52.175Z,39.40
2022-10-23T05:59:24.967Z,41.43
2022-10-23T06:00:57.150Z,39.20
2022-10-23T06:02:29.583Z,39.17
2022-10-23T06:04:03.045Z,36.57
2022-10-23T06:05:35.243Z,38.80
2022-10-23T06:07:07.511Z,38.67
2022-10-23T06:08:40.711Z,35.83
2022-10-23T06:10:13.831Z,35.03
2022-10-23T06:11:46.060Z,34.33
2022-10-23T06:13:18.447Z,34.47
2022-10-23T06:14:51.846Z,35.80
2022-10-23T06:16:26.858Z,39.30
2022-10-23T06:18:05.119Z,42.17
2022-10-23T06:19:37.945Z,38.70
2022-10-23T06:21:10.934Z,36.73
2022-10-23T06:22:43.415Z,37.37
2022-10-23T06:24:16.061Z,33.40
2022-10-23T06:25:53.628Z,37.73
2022-10-23T06:27:25.822Z,36.43
2022-10-23T06:28:58.269Z,34.13
2022-10-23T06:30:30.914Z,36.03
2022-10-23T06:32:03.443Z,37.77
2022-10-23T06:33:36.302Z,35.33
2022-10-23T06:35:09.171Z,37.37
2022-10-23T06:36:41.607Z,34.40
2022-10-23T06:38:14.121Z,37.33
2022-10-23T06:39:53.472Z,38.47
2022-10-23T06:41:25.705Z,38.97
2022-10-23T06:42:57.952Z,38.87
2022-10-23T06:44:30.145Z,38.43
2022-10-23T06:46:04.689Z,35.90
2022-10-23T06:47:36.899Z,33.60
2022-10-23T06:49:09.344Z,34.27
2022-10-23T06:50:41.939Z,34.73
2022-10-23T06:52:28.703Z,34.47
2022-10-23T06:54:06.745Z,37.80
2022-10-23T06:55:40.154Z,35.90
2022-10-23T06:57:12.680Z,35.43
2022-10-23T06:58:44.870Z,35.47
2022-10-23T07:00:29.361Z,34.87
2022-10-23T07:02:02.531Z,36.03
2022-10-23T07:03:35.536Z,35.20
2022-10-23T07:05:11.315Z,33.90
2022-10-23T07:06:46.105Z,32.30
2022-10-23T07:08:18.668Z,32.90
2022-10-23T07:09:50.847Z,32.20
2022-10-23T07:11:23.344Z,32.43
2022-10-23T07:13:00.673Z,31.77
2022-10-23T07:14:33.530Z,33.53
2022-10-23T07:16:22.213Z,32.37
2022-10-23T07:17:54.423Z,33.43
2022-10-23T07:19:26.984Z,33.47
2022-10-23T07:20:59.460Z,33.23
2022-10-23T07:22:31.639Z,33.90
2022-10-23T07:24:04.712Z,35.23
2022-10-23T07:25:37.930Z,35.07
2022-10-23T07:27:10.324Z,32.57
2022-10-23T07:28:47.359Z,34.00
2022-10-23T07:30:19.496Z,32.50
2022-10-23T07:31:51.651Z,30.10
2022-10-23T07:33:23.989Z,32.60
2022-10-23T07:34:56.508Z,31.40
2022-10-23T07:36:28.804Z,30.47
2022-10-23T07:38:01.207Z,30.43
2022-10-23T07:39:33.388Z,31.93
2022-10-23T07:41:08.880Z,33.57
2022-10-23T07:42:44.071Z,34.67
2022-10-23T07:44:16.617Z,33.50
2022-10-23T07:45:50.229Z,36.30
2022-10-23T07:47:22.498Z,31.33
2022-10-23T07:48:55.104Z,30.10
2022-10-23T07:50:27.903Z,30.63
2022-10-23T07:52:00.158Z,29.57
2022-10-23T07:53:32.603Z,27.93
2022-10-23T07:55:05.371Z,26.03
2022-10-23T07:56:37.571Z,25.63
2022-10-23T07:58:09.791Z,25.50
2022-10-23T07:59:42.283Z,25.63
2022-10-23T08:01:56.413Z,26.73
2022-10-23T08:03:33.110Z,22.50
2022-10-23T08:05:06.133Z,23.47
2022-10-23T08:06:38.432Z,24.27
2022-10-23T08:08:10.604Z,26.33
2022-10-23T08:09:43.051Z,22.83
2022-10-23T08:11:24.728Z,23.17
2022-10-23T08:12:56.897Z,22.97
2022-10-23T08:14:29.312Z,22.23
2022-10-23T08:16:02.355Z,21.40
2022-10-23T08:17:34.722Z,19.80
2022-10-23T08:19:09.023Z,20.27
2022-10-23T08:20:43.724Z,18.70
2022-10-23T08:22:16.061Z,20.00
2022-10-23T08:23:48.685Z,18.43
2022-10-23T08:25:24.929Z,18.53
2022-10-23T08:26:58.779Z,20.13
2022-10-23T08:28:32.109Z,18.90
2022-10-23T08:30:05.251Z,18.97
2022-10-23T08:31:37.479Z,19.90
2022-10-23T08:33:10.123Z,20.43
2022-10-23T08:34:42.921Z,20.90
2022-10-23T08:36:27.715Z,21.33
2022-10-23T08:37:59.835Z,20.97
2022-10-23T08:39:32.238Z,20.13
2022-10-23T08:41:04.564Z,20.13
2022-10-23T08:42:39.492Z,20.37
2022-10-23T08:44:40.744Z,21.40
2022-10-23T08:46:19.383Z,21.53
2022-10-23T08:47:58.724Z,23.37
2022-10-23T08:50:02.519Z,25.57
2022-10-23T08:51:46.890Z,23.17
2022-10-23T08:53:54.435Z,22.70
2022-10-23T08:55:34.906Z,24.10
2022-10-23T08:57:17.346Z,21.53
2022-10-23T08:59:00.356Z,21.97
2022-10-23T09:00:34.154Z,19.40
2022-10-23T09:03:59.734Z,17.20
2022-10-23T09:05:42.888Z,18.23
2022-10-23T09:08:00.173Z,16.97
2022-10-23T09:10:06.334Z,16.33
